createdAt,value
2019-01-13T00:00:11.784Z,97.67
2019-01-13T00:01:08.513Z,97.78
2019-01-13T00:02:08.514Z,97.88
2019-01-13T00:03:08.448Z,97.31
2019-01-13T00:04:08.468Z,97.67
2019-01-13T00:05:08.433Z,97.06
2019-01-13T00:06:08.455Z,97.78
2019-01-13T00:07:08.398Z,96.75
2019-01-13T00:08:08.389Z,96.75
2019-01-13T00:09:08.375Z,97.26
2019-01-13T00:10:08.404Z,97.57
2019-01-13T00:11:08.388Z,97.67
2019-01-13T00:12:08.346Z,96.75
2019-01-13T00:13:08.320Z,97.26
2019-01-13T00:14:08.335Z,97.78
2019-01-13T00:15:08.325Z,97.16
2019-01-13T00:16:08.324Z,97.36
2019-01-13T00:17:08.286Z,97.36
2019-01-13T00:18:08.319Z,97.26
2019-01-13T00:19:08.278Z,97.06
2019-01-13T00:20:08.281Z,97.06
2019-01-13T00:21:08.272Z,97.57
2019-01-13T00:22:08.262Z,98.09
2019-01-13T00:23:08.227Z,98.71
2019-01-13T00:24:08.216Z,98.50
2019-01-13T00:25:08.242Z,98.50
2019-01-13T00:26:08.211Z,98.86
2019-01-13T00:27:08.201Z,98.61
2019-01-13T00:28:08.189Z,98.55
2019-01-13T00:29:08.169Z,98.40
2019-01-13T00:30:08.781Z,98.61
2019-01-13T00:31:08.175Z,98.03
2019-01-13T00:32:08.177Z,98.19
2019-01-13T00:33:08.153Z,98.30
2019-01-13T00:34:09.810Z,98.71
2019-01-13T00:35:08.101Z,98.03
2019-01-13T00:36:08.106Z,97.57
2019-01-13T00:37:08.778Z,97.83
2019-01-13T00:38:08.077Z,97.26
2019-01-13T00:39:08.073Z,97.78
2019-01-13T00:40:08.068Z,97.36
2019-01-13T00:41:08.059Z,97.47
2019-01-13T00:42:08.077Z,98.03
2019-01-13T00:43:08.036Z,98.19
2019-01-13T00:44:08.008Z,98.03
2019-01-13T00:45:08.023Z,97.93
2019-01-13T00:46:08.025Z,97.99
2019-01-13T00:47:08.030Z,98.40
2019-01-13T00:48:08.774Z,97.47
2019-01-13T00:49:07.976Z,97.72
2019-01-13T00:50:07.963Z,98.09
2019-01-13T00:51:07.951Z,97.57
2019-01-13T00:52:07.948Z,98.13
2019-01-13T00:53:07.904Z,97.00
2019-01-13T00:54:07.885Z,97.78
2019-01-13T00:55:07.954Z,98.30
2019-01-13T00:56:07.908Z,98.50
2019-01-13T00:57:07.850Z,97.78
2019-01-13T00:58:07.864Z,98.13
2019-01-13T00:59:07.852Z,97.78
2019-01-13T01:00:07.826Z,98.09
2019-01-13T01:01:08.315Z,98.24
2019-01-13T01:02:07.863Z,98.82
2019-01-13T01:03:07.811Z,98.65
2019-01-13T01:04:07.807Z,98.71
2019-01-13T01:05:14.848Z,98.44
2019-01-13T01:06:15.957Z,98.24
2019-01-13T01:07:14.830Z,98.44
2019-01-13T01:08:07.768Z,98.86
2019-01-13T01:09:07.740Z,98.24
2019-01-13T01:10:07.727Z,98.65
2019-01-13T01:11:07.727Z,98.75
2019-01-13T01:12:07.737Z,98.75
2019-01-13T01:13:07.686Z,98.65
2019-01-13T01:14:07.690Z,98.86
2019-01-13T01:15:07.666Z,98.75
2019-01-13T01:16:07.692Z,98.44
2019-01-13T01:17:08.348Z,98.55
2019-01-13T01:18:07.663Z,98.34
2019-01-13T01:19:07.632Z,97.83
2019-01-13T01:20:07.629Z,98.24
2019-01-13T01:21:07.624Z,98.03
2019-01-13T01:22:07.610Z,98.24
2019-01-13T01:23:07.602Z,98.65
2019-01-13T01:24:07.603Z,98.75
2019-01-13T01:25:07.573Z,97.62
2019-01-13T01:26:07.583Z,97.41
2019-01-13T01:27:07.564Z,97.83
2019-01-13T01:28:07.552Z,97.31
2019-01-13T01:29:07.537Z,97.52
2019-01-13T01:30:07.534Z,97.52
2019-01-13T01:31:07.541Z,97.31
2019-01-13T01:32:07.515Z,97.62
2019-01-13T01:33:07.496Z,97.62
2019-01-13T01:34:07.512Z,97.62
2019-01-13T01:35:07.474Z,97.20
2019-01-13T01:36:07.492Z,96.79
2019-01-13T01:37:07.426Z,97.72
2019-01-13T01:38:07.437Z,98.13
2019-01-13T01:39:07.430Z,97.83
2019-01-13T01:40:14.518Z,98.18
2019-01-13T01:41:07.493Z,98.24
2019-01-13T01:42:07.402Z,98.80
2019-01-13T01:43:14.489Z,98.24
2019-01-13T01:44:15.468Z,98.08
2019-01-13T01:45:15.947Z,98.18
2019-01-13T01:46:14.450Z,98.08
2019-01-13T01:47:15.025Z,98.18
2019-01-13T01:48:07.326Z,97.52
2019-01-13T01:49:14.932Z,97.25
2019-01-13T01:50:16.087Z,97.56
2019-01-13T01:51:15.404Z,97.77
2019-01-13T01:52:07.293Z,96.83
2019-01-13T01:53:07.313Z,97.14
2019-01-13T01:54:07.274Z,97.25
2019-01-13T01:55:07.245Z,96.73
2019-01-13T01:56:07.282Z,97.04
2019-01-13T01:57:07.232Z,96.83
2019-01-13T01:58:07.234Z,96.73
2019-01-13T01:59:07.225Z,96.73
2019-01-13T02:00:07.217Z,96.62
2019-01-13T02:01:07.192Z,95.80
2019-01-13T02:02:07.202Z,95.80
2019-01-13T02:03:07.184Z,95.49
2019-01-13T02:04:07.188Z,95.18
2019-01-13T02:05:07.187Z,95.18
2019-01-13T02:06:07.155Z,95.90
2019-01-13T02:07:07.151Z,95.44
2019-01-13T02:08:07.169Z,95.28
2019-01-13T02:09:07.126Z,95.39
2019-01-13T02:10:07.176Z,94.56
2019-01-13T02:11:07.094Z,94.51
2019-01-13T02:12:07.105Z,94.66
2019-01-13T02:13:07.086Z,94.04
2019-01-13T02:14:07.060Z,93.37
2019-01-13T02:15:07.067Z,93.79
2019-01-13T02:16:07.078Z,93.37
2019-01-13T02:17:07.119Z,92.85
2019-01-13T02:18:07.030Z,92.96
2019-01-13T02:19:07.028Z,93.48
2019-01-13T02:20:07.004Z,93.48
2019-01-13T02:21:06.980Z,93.89
2019-01-13T02:22:07.018Z,94.10
2019-01-13T02:23:06.979Z,93.99
2019-01-13T02:24:06.972Z,94.51
2019-01-13T02:25:06.933Z,94.41
2019-01-13T02:26:06.923Z,94.51
2019-01-13T02:27:06.930Z,94.20
2019-01-13T02:28:06.904Z,94.51
2019-01-13T02:29:06.921Z,94.10
2019-01-13T02:30:06.880Z,93.83
2019-01-13T02:31:06.877Z,94.20
2019-01-13T02:32:06.882Z,94.35
2019-01-13T02:33:06.837Z,94.10
2019-01-13T02:34:06.832Z,93.89
2019-01-13T02:35:06.824Z,94.62
2019-01-13T02:36:06.816Z,94.72
2019-01-13T02:37:06.833Z,93.99
2019-01-13T02:38:06.787Z,94.35
2019-01-13T02:39:06.783Z,94.82
2019-01-13T02:40:06.772Z,94.62
2019-01-13T02:41:06.777Z,94.87
2019-01-13T02:42:06.779Z,94.72
2019-01-13T02:43:06.763Z,95.34
2019-01-13T02:44:06.725Z,95.24
2019-01-13T02:45:06.709Z,95.65
2019-01-13T02:46:06.720Z,96.37
2019-01-13T02:47:06.728Z,95.75
2019-01-13T02:48:06.694Z,96.11
2019-01-13T02:49:06.682Z,96.17
2019-01-13T02:50:06.659Z,96.79
2019-01-13T02:51:06.652Z,97.41
2019-01-13T02:52:06.681Z,96.89
2019-01-13T02:53:06.636Z,96.94
2019-01-13T02:54:06.647Z,97.35
2019-01-13T02:55:06.634Z,97.66
2019-01-13T02:56:06.612Z,97.45
2019-01-13T02:57:06.608Z,97.45
2019-01-13T02:58:06.590Z,96.73
2019-01-13T02:59:06.593Z,97.14
2019-01-13T03:00:06.575Z,96.73
2019-01-13T03:01:06.566Z,96.73
2019-01-13T03:02:06.579Z,97.14
2019-01-13T03:03:06.539Z,97.56
2019-01-13T03:04:06.561Z,96.83
2019-01-13T03:05:06.542Z,96.83
2019-01-13T03:06:06.521Z,97.35
2019-01-13T03:07:06.531Z,97.66
2019-01-13T03:08:06.545Z,97.52
2019-01-13T03:09:06.462Z,97.66
2019-01-13T03:10:06.467Z,98.08
2019-01-13T03:11:06.461Z,98.80
2019-01-13T03:12:13.564Z,98.91
2019-01-13T03:13:13.479Z,99.22
2019-01-13T03:14:13.965Z,99.11
2019-01-13T03:15:19.518Z,99.63
2019-01-13T03:17:17.043Z,99.63
2019-01-13T03:18:24.904Z,99.84
2019-01-13T03:19:24.921Z,99.99
2019-01-13T03:20:24.927Z,99.99
2019-01-13T03:21:24.048Z,99.99
2019-01-13T03:22:25.087Z,99.99
2019-01-13T03:23:24.989Z,99.99
2019-01-13T03:26:38.242Z,99.99
2019-01-13T03:27:46.293Z,99.99
2019-01-13T03:28:45.241Z,99.99
2019-01-13T03:29:38.167Z,99.99
2019-01-13T03:30:38.203Z,99.99
2019-01-13T03:31:38.135Z,99.99
2019-01-13T03:32:38.146Z,99.99
2019-01-13T03:33:38.123Z,99.99
2019-01-13T03:34:38.113Z,99.99
2019-01-13T03:35:38.124Z,99.99
2019-01-13T03:36:38.096Z,99.99
2019-01-13T03:37:38.121Z,99.99
2019-01-13T03:38:38.074Z,99.99
2019-01-13T03:39:38.094Z,99.99
2019-01-13T03:40:38.100Z,99.99
2019-01-13T03:41:38.064Z,99.99
2019-01-13T03:42:38.056Z,99.99
2019-01-13T03:43:38.025Z,99.99
2019-01-13T03:44:38.038Z,99.99
2019-01-13T03:45:38.012Z,99.99
2019-01-13T03:46:38.007Z,99.99
2019-01-13T03:47:38.025Z,99.99
2019-01-13T03:48:37.987Z,99.99
2019-01-13T03:49:37.974Z,99.99
2019-01-13T03:50:37.953Z,99.99
2019-01-13T03:51:37.936Z,99.99
2019-01-13T03:52:38.598Z,99.99
2019-01-13T03:53:37.905Z,99.99
2019-01-13T03:54:37.906Z,99.99
2019-01-13T03:55:37.914Z,99.99
2019-01-13T03:56:37.885Z,99.99
2019-01-13T03:57:37.933Z,99.99
2019-01-13T03:58:37.870Z,99.99
2019-01-13T03:59:37.879Z,99.99
2019-01-13T04:00:37.848Z,99.99
2019-01-13T04:01:37.856Z,99.99
2019-01-13T04:02:37.838Z,99.99
2019-01-13T04:03:37.826Z,99.99
2019-01-13T04:04:44.888Z,99.99
2019-01-13T04:05:44.999Z,99.99
2019-01-13T04:06:44.868Z,99.99
2019-01-13T04:07:37.770Z,99.99
2019-01-13T04:08:37.762Z,99.99
2019-01-13T04:09:37.743Z,99.99
2019-01-13T04:10:37.735Z,99.99
2019-01-13T04:11:37.719Z,99.99
2019-01-13T04:12:37.719Z,99.99
2019-01-13T04:13:37.699Z,99.99
2019-01-13T04:14:37.704Z,99.99
2019-01-13T04:15:37.696Z,99.99
2019-01-13T04:16:37.667Z,99.99
2019-01-13T04:17:37.691Z,99.99
2019-01-13T04:18:37.652Z,99.99
2019-01-13T04:19:37.643Z,99.99
2019-01-13T04:20:37.623Z,99.99
2019-01-13T04:21:37.620Z,99.99
2019-01-13T04:22:37.633Z,99.99
2019-01-13T04:23:37.586Z,99.99
2019-01-13T04:24:37.582Z,99.99
2019-01-13T04:25:37.577Z,99.99
2019-01-13T04:26:37.565Z,99.99
2019-01-13T04:27:37.576Z,99.99
2019-01-13T04:28:37.547Z,99.99
2019-01-13T04:29:37.551Z,99.99
2019-01-13T04:30:37.536Z,99.99
2019-01-13T04:31:37.505Z,99.99
2019-01-13T04:32:37.532Z,99.99
2019-01-13T04:33:37.509Z,99.99
2019-01-13T04:34:37.508Z,99.99
2019-01-13T04:35:37.468Z,99.99
2019-01-13T04:36:37.459Z,99.99
2019-01-13T04:37:37.452Z,99.99
2019-01-13T04:38:37.453Z,99.99
2019-01-13T04:39:37.439Z,99.99
2019-01-13T04:40:37.426Z,99.99
2019-01-13T04:41:37.442Z,99.99
2019-01-13T04:42:37.423Z,99.99
2019-01-13T04:43:37.393Z,99.99
2019-01-13T04:44:37.384Z,99.99
2019-01-13T04:45:37.375Z,99.99
2019-01-13T04:46:38.621Z,99.99
2019-01-13T04:47:37.366Z,99.99
2019-01-13T04:48:37.341Z,99.99
2019-01-13T04:49:37.373Z,99.99
2019-01-13T04:50:37.355Z,99.99
2019-01-13T04:51:37.337Z,99.99
2019-01-13T04:52:37.344Z,99.99
2019-01-13T04:53:37.297Z,99.99
2019-01-13T04:54:37.273Z,99.99
2019-01-13T04:55:37.272Z,99.99
2019-01-13T04:56:37.246Z,99.99
2019-01-13T04:57:37.275Z,99.99
2019-01-13T04:58:37.240Z,99.99
2019-01-13T04:59:37.229Z,99.99
2019-01-13T05:00:37.220Z,99.99
2019-01-13T05:01:37.204Z,99.99
2019-01-13T05:02:37.215Z,99.99
2019-01-13T05:03:37.194Z,99.99
2019-01-13T05:04:37.165Z,99.99
2019-01-13T05:05:37.182Z,99.99
2019-01-13T05:06:37.160Z,99.99
2019-01-13T05:07:37.173Z,99.99
2019-01-13T05:08:44.237Z,99.99
2019-01-13T05:09:45.195Z,99.99
2019-01-13T05:10:37.166Z,99.99
2019-01-13T05:11:37.105Z,99.99
2019-01-13T05:12:37.095Z,99.99
2019-01-13T05:13:37.108Z,99.99
2019-01-13T05:14:37.065Z,99.99
2019-01-13T05:15:37.078Z,99.99
2019-01-13T05:16:37.043Z,99.99
2019-01-13T05:17:37.049Z,99.99
2019-01-13T05:18:37.081Z,99.99
2019-01-13T05:19:37.065Z,99.99
2019-01-13T05:20:37.018Z,99.99
2019-01-13T05:21:36.987Z,99.99
2019-01-13T05:22:36.988Z,99.99
2019-01-13T05:23:36.996Z,99.99
2019-01-13T05:24:36.968Z,99.99
2019-01-13T05:25:36.947Z,99.99
2019-01-13T05:26:36.933Z,99.99
2019-01-13T05:27:36.949Z,99.99
2019-01-13T05:28:36.956Z,99.99
2019-01-13T05:29:36.914Z,99.99
2019-01-13T05:30:36.925Z,99.99
2019-01-13T05:31:41.899Z,99.99
2019-01-13T05:32:37.879Z,99.99
2019-01-13T05:33:36.888Z,99.99
2019-01-13T05:34:36.867Z,99.99
2019-01-13T05:35:36.843Z,99.99
2019-01-13T05:36:36.829Z,99.99
2019-01-13T05:37:36.853Z,99.99
2019-01-13T05:38:36.839Z,99.99
2019-01-13T05:39:36.793Z,99.99
2019-01-13T05:40:36.807Z,99.99
2019-01-13T05:41:36.791Z,99.99
2019-01-13T05:42:36.809Z,99.99
2019-01-13T05:43:36.784Z,99.99
2019-01-13T05:44:36.807Z,99.99
2019-01-13T05:45:36.781Z,99.99
2019-01-13T05:46:36.724Z,99.99
2019-01-13T05:47:36.723Z,99.99
2019-01-13T05:48:36.748Z,99.99
2019-01-13T05:49:36.705Z,99.99
2019-01-13T05:50:36.702Z,99.99
2019-01-13T05:51:36.692Z,99.99
2019-01-13T05:52:36.679Z,99.99
2019-01-13T05:53:36.678Z,99.99
2019-01-13T05:54:36.644Z,99.99
2019-01-13T05:55:36.641Z,99.99
2019-01-13T05:56:36.692Z,99.99
2019-01-13T05:57:36.617Z,99.99
2019-01-13T05:58:36.617Z,99.99
2019-01-13T05:59:36.599Z,99.99
2019-01-13T06:00:36.594Z,99.99
2019-01-13T06:01:36.591Z,99.99
2019-01-13T06:02:36.564Z,99.99
2019-01-13T06:03:36.589Z,99.99
2019-01-13T06:04:36.536Z,99.99
2019-01-13T06:05:36.526Z,99.99
2019-01-13T06:06:36.526Z,99.99
2019-01-13T06:07:36.526Z,99.99
2019-01-13T06:08:36.513Z,99.99
2019-01-13T06:09:36.472Z,99.99
2019-01-13T06:10:36.487Z,99.99
2019-01-13T06:11:36.453Z,99.99
2019-01-13T06:12:36.442Z,99.99
2019-01-13T06:13:36.466Z,99.99
2019-01-13T06:14:36.415Z,99.99
2019-01-13T06:15:36.406Z,99.99
2019-01-13T06:16:36.410Z,99.99
2019-01-13T06:17:36.398Z,99.99
2019-01-13T06:18:36.415Z,99.99
2019-01-13T06:19:36.391Z,99.99
2019-01-13T06:20:36.393Z,99.99
2019-01-13T06:21:36.350Z,99.99
2019-01-13T06:22:36.342Z,99.99
2019-01-13T06:23:36.340Z,99.99
2019-01-13T06:24:36.360Z,99.99
2019-01-13T06:25:36.324Z,99.99
2019-01-13T06:26:36.318Z,99.99
2019-01-13T06:27:36.288Z,99.99
2019-01-13T06:28:36.294Z,99.99
2019-01-13T06:29:36.280Z,99.99
2019-01-13T06:30:36.269Z,99.99
2019-01-13T06:31:36.264Z,99.99
2019-01-13T06:32:36.241Z,99.99
2019-01-13T06:33:36.235Z,99.99
2019-01-13T06:34:36.214Z,99.99
2019-01-13T06:35:36.211Z,99.99
2019-01-13T06:36:36.208Z,99.99
2019-01-13T06:37:36.213Z,99.99
2019-01-13T06:38:36.220Z,99.99
2019-01-13T06:39:36.173Z,99.99
2019-01-13T06:40:36.152Z,99.99
2019-01-13T06:41:36.165Z,99.99
2019-01-13T06:42:36.151Z,99.99
2019-01-13T06:43:36.157Z,99.99
2019-01-13T06:44:36.114Z,99.99
2019-01-13T06:45:36.108Z,99.99
2019-01-13T06:46:36.093Z,99.99
2019-01-13T06:47:36.089Z,99.99
2019-01-13T06:48:36.085Z,99.99
2019-01-13T06:49:36.091Z,99.99
2019-01-13T06:50:36.063Z,99.99
2019-01-13T06:51:36.043Z,99.99
2019-01-13T06:52:36.038Z,99.99
2019-01-13T06:53:36.037Z,99.99
2019-01-13T06:54:36.034Z,99.99
2019-01-13T06:55:35.996Z,99.99
2019-01-13T06:56:35.997Z,99.99
2019-01-13T06:57:35.995Z,99.99
2019-01-13T06:58:35.992Z,99.99
2019-01-13T06:59:35.987Z,99.99
2019-01-13T07:00:35.964Z,99.99
2019-01-13T07:01:35.981Z,99.99
2019-01-13T07:02:35.989Z,99.99
2019-01-13T07:03:43.993Z,99.99
2019-01-13T07:04:43.035Z,99.99
2019-01-13T07:05:42.950Z,99.99
2019-01-13T07:06:43.818Z,99.99
2019-01-13T07:07:42.955Z,99.99
2019-01-13T07:08:42.968Z,99.99
2019-01-13T07:09:35.858Z,99.99
2019-01-13T07:10:42.912Z,99.99
2019-01-13T07:11:43.456Z,99.99
2019-01-13T07:12:43.411Z,99.99
2019-01-13T07:13:42.896Z,99.99
2019-01-13T07:14:44.473Z,99.99
2019-01-13T07:15:43.480Z,99.99
2019-01-13T07:16:43.840Z,99.99
2019-01-13T07:17:42.841Z,99.99
2019-01-13T07:18:35.765Z,99.99
2019-01-13T07:19:35.768Z,99.85
2019-01-13T07:20:35.734Z,99.64
2019-01-13T07:21:35.723Z,99.64
2019-01-13T07:22:35.714Z,99.95
2019-01-13T07:23:35.709Z,99.54
2019-01-13T07:24:35.711Z,99.74
2019-01-13T07:25:35.677Z,99.99
2019-01-13T07:26:35.668Z,99.85
2019-01-13T07:27:35.670Z,99.95
2019-01-13T07:28:35.672Z,99.99
2019-01-13T07:29:35.669Z,99.99
2019-01-13T07:30:35.655Z,99.85
2019-01-13T07:31:35.643Z,99.43
2019-01-13T07:32:35.609Z,99.02
2019-01-13T07:33:35.606Z,99.54
2019-01-13T07:34:35.613Z,99.13
2019-01-13T07:35:35.584Z,98.82
2019-01-13T07:36:35.590Z,99.43
2019-01-13T07:37:35.580Z,98.61
2019-01-13T07:38:35.598Z,99.39
2019-01-13T07:39:35.563Z,99.49
2019-01-13T07:40:36.065Z,98.46
2019-01-13T07:41:35.627Z,98.56
2019-01-13T07:42:35.554Z,98.56
2019-01-13T07:43:35.499Z,98.97
2019-01-13T07:44:35.514Z,98.46
2019-01-13T07:45:35.492Z,99.13
2019-01-13T07:46:35.480Z,98.97
2019-01-13T07:47:35.468Z,98.97
2019-01-13T07:48:35.457Z,99.18
2019-01-13T07:49:35.461Z,98.87
2019-01-13T07:50:35.429Z,99.60
2019-01-13T07:51:35.466Z,99.02
2019-01-13T07:52:35.408Z,99.49
2019-01-13T07:53:35.437Z,99.49
2019-01-13T07:54:35.424Z,99.08
2019-01-13T07:55:35.387Z,98.66
2019-01-13T07:56:35.394Z,98.77
2019-01-13T07:57:35.387Z,98.25
2019-01-13T07:58:35.352Z,98.46
2019-01-13T07:59:35.371Z,98.46
2019-01-13T08:00:35.343Z,98.46
2019-01-13T08:01:35.337Z,98.05
2019-01-13T08:02:35.309Z,98.05
2019-01-13T08:03:35.292Z,97.53
2019-01-13T08:04:35.314Z,97.94
2019-01-13T08:05:35.369Z,97.94
2019-01-13T08:06:35.293Z,97.94
2019-01-13T08:07:35.250Z,97.63
2019-01-13T08:08:35.233Z,96.70
2019-01-13T08:09:35.254Z,97.32
2019-01-13T08:10:35.238Z,96.59
2019-01-13T08:11:35.222Z,97.11
2019-01-13T08:12:35.223Z,96.70
2019-01-13T08:13:35.194Z,96.91
2019-01-13T08:14:35.199Z,96.76
2019-01-13T08:15:35.176Z,96.91
2019-01-13T08:16:36.064Z,96.34
2019-01-13T08:17:35.153Z,96.86
2019-01-13T08:18:35.151Z,96.45
2019-01-13T08:19:35.156Z,96.34
2019-01-13T08:20:35.107Z,96.55
2019-01-13T08:21:35.098Z,95.73
2019-01-13T08:22:35.101Z,96.24
2019-01-13T08:23:35.160Z,96.03
2019-01-13T08:24:35.108Z,95.83
2019-01-13T08:25:42.420Z,95.21
2019-01-13T08:26:43.841Z,95.00
2019-01-13T08:30:31.961Z,95.57
2019-01-13T08:31:32.318Z,95.73
2019-01-13T08:34:09.477Z,95.21
2019-01-13T08:35:09.664Z,95.10
2019-01-13T08:36:09.085Z,94.65
2019-01-13T08:37:09.075Z,95.37
2019-01-13T08:38:09.024Z,95.48
2019-01-13T08:39:09.012Z,95.48
2019-01-13T08:40:09.015Z,95.37
2019-01-13T08:41:09.002Z,95.17
2019-01-13T08:42:09.002Z,95.37
2019-01-13T08:43:08.996Z,95.27
2019-01-13T08:44:08.969Z,95.37
2019-01-13T08:45:08.983Z,95.48
2019-01-13T08:46:08.980Z,95.89
2019-01-13T08:47:08.938Z,95.83
2019-01-13T08:48:08.977Z,95.73
2019-01-13T08:49:08.937Z,95.99
2019-01-13T08:50:16.129Z,95.94
2019-01-13T08:51:15.976Z,95.94
2019-01-13T08:52:08.978Z,95.68
2019-01-13T08:53:08.995Z,95.31
2019-01-13T08:54:08.864Z,95.48
2019-01-13T08:55:09.028Z,95.27
2019-01-13T08:56:08.842Z,95.57
2019-01-13T08:57:08.836Z,95.37
2019-01-13T08:58:08.837Z,95.83
2019-01-13T08:59:09.419Z,96.09
2019-01-13T09:00:08.833Z,95.57
2019-01-13T09:01:09.785Z,95.48
2019-01-13T09:02:08.795Z,95.06
2019-01-13T09:03:08.774Z,94.75
2019-01-13T09:04:08.773Z,94.85
2019-01-13T09:05:08.796Z,95.37
2019-01-13T09:06:08.750Z,95.27
2019-01-13T09:07:08.764Z,95.48
2019-01-13T09:08:08.777Z,95.12
2019-01-13T09:09:08.707Z,95.48
2019-01-13T09:10:08.713Z,95.48
2019-01-13T09:11:08.738Z,95.48
2019-01-13T09:12:08.691Z,95.68
2019-01-13T09:13:09.463Z,95.78
2019-01-13T09:14:08.645Z,95.37
2019-01-13T09:15:08.934Z,95.78
2019-01-13T09:16:08.717Z,95.68
2019-01-13T09:17:08.633Z,95.99
2019-01-13T09:18:08.614Z,95.99
2019-01-13T09:19:08.630Z,96.82
2019-01-13T09:20:08.625Z,96.82
2019-01-13T09:21:08.604Z,96.20
2019-01-13T09:22:08.589Z,97.44
2019-01-13T09:23:08.595Z,97.64
2019-01-13T09:24:08.564Z,97.54
2019-01-13T09:25:09.446Z,97.79
2019-01-13T09:26:08.522Z,97.85
2019-01-13T09:27:08.543Z,97.85
2019-01-13T09:28:08.532Z,98.21
2019-01-13T09:29:08.527Z,98.72
2019-01-13T09:30:08.519Z,98.31
2019-01-13T09:31:08.481Z,98.68
2019-01-13T09:32:08.467Z,98.31
2019-01-13T09:33:08.480Z,98.83
2019-01-13T09:34:08.449Z,99.34
2019-01-13T09:35:08.488Z,98.78
2019-01-13T09:36:08.416Z,98.93
2019-01-13T09:37:08.436Z,99.24
2019-01-13T09:38:08.575Z,99.44
2019-01-13T09:39:08.951Z,99.55
2019-01-13T09:40:08.425Z,99.34
2019-01-13T09:41:08.393Z,99.76
2019-01-13T09:42:08.387Z,99.86
2019-01-13T09:43:08.378Z,99.34
2019-01-13T09:44:08.336Z,99.34
2019-01-13T09:45:08.346Z,99.24
2019-01-13T09:46:08.341Z,98.83
2019-01-13T09:47:08.316Z,98.83
2019-01-13T09:48:08.315Z,99.24
2019-01-13T09:49:08.285Z,99.30
2019-01-13T09:50:08.953Z,99.09
2019-01-13T09:51:08.276Z,98.99
2019-01-13T09:52:08.238Z,98.88
2019-01-13T09:53:08.322Z,98.88
2019-01-13T09:54:08.252Z,98.88
2019-01-13T09:55:08.238Z,98.93
2019-01-13T09:56:08.222Z,98.88
2019-01-13T09:57:08.248Z,99.19
2019-01-13T09:58:08.212Z,99.04
2019-01-13T09:59:08.179Z,99.40
2019-01-13T10:00:08.216Z,99.40
2019-01-13T10:01:08.187Z,98.88
2019-01-13T10:02:08.148Z,99.30
2019-01-13T10:04:25.743Z,99.09
2019-01-13T10:05:25.964Z,99.51
2019-01-13T10:06:26.124Z,99.34
2019-01-13T10:07:25.687Z,99.82
2019-01-13T10:08:25.718Z,99.92
2019-01-13T10:09:25.653Z,99.99
2019-01-13T10:10:25.685Z,99.99
2019-01-13T10:11:25.628Z,99.99
2019-01-13T10:12:25.625Z,99.99
2019-01-13T10:13:25.605Z,99.99
2019-01-13T10:14:25.603Z,99.99
2019-01-13T10:15:25.612Z,99.99
2019-01-13T10:16:25.593Z,99.99
2019-01-13T10:17:25.555Z,99.99
2019-01-13T10:18:25.568Z,99.99
2019-01-13T10:19:25.548Z,99.82
2019-01-13T10:20:25.556Z,99.82
2019-01-13T10:21:25.549Z,99.86
2019-01-13T10:22:25.496Z,99.51
2019-01-13T10:23:25.491Z,98.99
2019-01-13T10:24:25.496Z,99.61
2019-01-13T10:25:25.494Z,99.61
2019-01-13T10:26:25.476Z,99.51
2019-01-13T10:27:25.458Z,99.99
2019-01-13T10:28:25.445Z,99.99
2019-01-13T10:29:25.449Z,99.99
2019-01-13T10:30:25.459Z,99.40
2019-01-13T10:31:25.417Z,99.14
2019-01-13T10:32:25.407Z,99.86
2019-01-13T10:33:25.390Z,99.71
2019-01-13T10:34:25.372Z,99.40
2019-01-13T10:35:25.380Z,99.09
2019-01-13T10:36:25.376Z,99.40
2019-01-13T10:37:25.372Z,99.25
2019-01-13T10:38:25.351Z,99.40
2019-01-13T10:39:25.333Z,98.57
2019-01-13T10:40:25.383Z,98.27
2019-01-13T10:41:25.335Z,99.30
2019-01-13T10:42:25.294Z,98.88
2019-01-13T10:43:25.376Z,98.99
2019-01-13T10:44:25.293Z,98.99
2019-01-13T10:45:25.267Z,99.19
2019-01-13T10:46:25.231Z,99.05
2019-01-13T10:47:25.236Z,98.99
2019-01-13T10:48:25.245Z,99.19
2019-01-13T10:49:25.301Z,99.30
2019-01-13T10:50:25.790Z,99.82
2019-01-13T10:51:25.343Z,99.30
2019-01-13T10:52:25.173Z,99.86
2019-01-13T10:53:25.188Z,99.61
2019-01-13T10:54:25.169Z,99.92
2019-01-13T10:55:32.258Z,99.99
2019-01-13T10:56:25.252Z,99.61
2019-01-13T10:58:35.788Z,99.99
2019-01-13T10:59:43.871Z,99.99
2019-01-13T11:01:46.941Z,99.99
2019-01-13T11:03:02.419Z,98.99
2019-01-13T11:03:47.291Z,99.30
2019-01-13T11:04:46.527Z,98.99
2019-01-13T11:10:32.120Z,98.99
2019-01-13T11:11:32.915Z,98.78
2019-01-13T11:12:32.795Z,99.40
2019-01-13T11:13:32.846Z,99.24
2019-01-13T11:14:31.969Z,99.19
2019-01-13T11:15:31.989Z,99.82
2019-01-13T11:16:31.969Z,99.30
2019-01-13T11:17:31.946Z,99.51
2019-01-13T11:18:31.889Z,99.19
2019-01-13T11:19:31.877Z,99.65
2019-01-13T11:20:32.841Z,99.51
2019-01-13T11:21:31.909Z,99.99
2019-01-13T11:22:31.845Z,99.40
2019-01-13T11:23:32.840Z,99.99
2019-01-13T11:24:31.819Z,99.04
2019-01-13T11:25:31.801Z,99.51
2019-01-13T11:26:31.816Z,99.40
2019-01-13T11:27:31.775Z,99.51
2019-01-13T11:28:31.774Z,99.34
2019-01-13T11:29:32.786Z,99.82
2019-01-13T11:30:31.759Z,99.65
2019-01-13T11:31:31.781Z,99.30
2019-01-13T11:32:31.752Z,99.82
2019-01-13T11:33:31.717Z,98.78
2019-01-13T11:34:31.728Z,99.86
2019-01-13T11:35:32.320Z,99.99
2019-01-13T11:36:32.318Z,99.99
2019-01-13T11:37:31.734Z,99.99
2019-01-13T11:38:31.724Z,99.99
2019-01-13T11:39:31.646Z,99.99
2019-01-13T11:40:31.664Z,99.99
2019-01-13T11:41:31.644Z,99.99
2019-01-13T11:42:31.642Z,99.99
2019-01-13T11:43:31.619Z,99.99
2019-01-13T11:44:31.634Z,99.99
2019-01-13T11:45:31.595Z,99.99
2019-01-13T11:46:31.597Z,99.99
2019-01-13T11:47:31.578Z,99.99
2019-01-13T11:48:31.582Z,99.99
2019-01-13T11:49:31.556Z,99.99
2019-01-13T11:50:31.529Z,99.99
2019-01-13T11:51:31.565Z,99.99
2019-01-13T11:52:31.532Z,99.99
2019-01-13T11:53:31.511Z,99.99
2019-01-13T11:54:31.502Z,99.99
2019-01-13T11:55:31.492Z,99.99
2019-01-13T11:56:31.491Z,99.99
2019-01-13T11:57:31.471Z,99.99
2019-01-13T11:58:31.445Z,99.99
2019-01-13T11:59:31.466Z,99.99
2019-01-13T12:00:31.466Z,99.99
2019-01-13T12:01:31.448Z,99.99
2019-01-13T12:02:32.856Z,99.99
2019-01-13T12:03:31.390Z,99.99
2019-01-13T12:04:31.374Z,99.99
2019-01-13T12:05:31.378Z,99.99
2019-01-13T12:06:31.381Z,99.99
2019-01-13T12:07:31.352Z,99.99
2019-01-13T12:08:31.326Z,99.99
2019-01-13T12:09:31.328Z,99.99
2019-01-13T12:10:31.315Z,99.99
2019-01-13T12:11:31.327Z,99.99
2019-01-13T12:12:31.307Z,99.99
2019-01-13T12:13:31.301Z,99.99
2019-01-13T12:14:31.280Z,99.99
2019-01-13T12:15:31.266Z,99.99
2019-01-13T12:16:31.268Z,99.99
2019-01-13T12:17:31.255Z,99.99
2019-01-13T12:18:31.265Z,99.99
2019-01-13T12:19:31.248Z,99.99
2019-01-13T12:20:31.311Z,99.99
2019-01-13T12:21:31.231Z,99.99
2019-01-13T12:22:31.812Z,99.99
2019-01-13T12:23:31.181Z,99.99
2019-01-13T12:24:31.172Z,99.99
2019-01-13T12:25:31.153Z,99.99
2019-01-13T12:26:31.200Z,99.99
2019-01-13T12:27:31.159Z,99.99
2019-01-13T12:28:31.143Z,99.99
2019-01-13T12:29:31.131Z,99.99
2019-01-13T12:30:31.119Z,99.99
2019-01-13T12:31:32.340Z,99.99
2019-01-13T12:32:31.095Z,99.99
2019-01-13T12:33:31.076Z,99.99
2019-01-13T12:34:31.063Z,99.99
2019-01-13T12:35:31.076Z,99.99
2019-01-13T12:36:31.070Z,99.99
2019-01-13T12:37:31.042Z,99.99
2019-01-13T12:38:31.029Z,99.99
2019-01-13T12:39:31.033Z,99.99
2019-01-13T12:40:31.002Z,99.99
2019-01-13T12:41:31.023Z,99.99
2019-01-13T12:42:31.009Z,99.99
2019-01-13T12:43:30.976Z,99.99
2019-01-13T12:44:30.982Z,99.99
2019-01-13T12:45:30.983Z,99.99
2019-01-13T12:46:31.866Z,99.99
2019-01-13T12:47:30.932Z,99.99
2019-01-13T12:48:31.848Z,99.99
2019-01-13T12:49:30.915Z,99.99
2019-01-13T12:50:30.888Z,99.99
2019-01-13T12:51:30.908Z,99.99
2019-01-13T12:52:30.899Z,99.99
2019-01-13T12:53:30.870Z,99.99
2019-01-13T12:54:30.846Z,99.99
2019-01-13T12:55:30.858Z,99.99
2019-01-13T12:56:31.352Z,99.99
2019-01-13T12:57:30.820Z,99.99
2019-01-13T12:58:30.857Z,99.99
2019-01-13T12:59:30.813Z,99.99
2019-01-13T13:00:30.796Z,99.99
2019-01-13T13:01:30.834Z,99.99
2019-01-13T13:02:30.855Z,99.99
2019-01-13T13:03:38.439Z,99.99
2019-01-13T13:04:30.785Z,99.99
2019-01-13T13:05:30.757Z,99.99
2019-01-13T13:06:30.754Z,99.99
2019-01-13T13:07:30.727Z,99.99
2019-01-13T13:08:30.704Z,99.99